X  Sluiten METAR luchtvaart weer gegevens      KSWO Stillwater Regional Airport
Temperatuur
72°F Temperatuur
64°F Dauwpunt
78% Vochtigheid



Wind
7 MPH
11 KM/U
3 M/S
6 KTS



200°
ZZW
Huidig weer

Helder Helder
Luchtdruk 1005.72 (hPa) - 29.7 (inHg)
Zicht 10 (mijl) - 16.1 (km)
Vliegveld
Vliegveld code KSWO

Locatie : Stillwater Regional Airport
Afstand: 4 (mi)

Metar:
KSWO 191353Z 20006KT 10SM CLR 22/18 A2970 RMK AO2 SLP046 T02220178

Tijd: 05-19-2022 8:53 am CDT